sensor_id;sensor_type;location;lat;lon;timestamp;P1;durP1;ratioP1;P2;durP2;ratioP2
5133;SDS011;2585;48.696;10.066;2024-02-21T00:00:38;23.23;;;7.20;;
5133;SDS011;2585;48.696;10.066;2024-02-21T00:03:06;18.48;;;8.40;;
5133;SDS011;2585;48.696;10.066;2024-02-21T00:05:33;13.00;;;7.50;;
5133;SDS011;2585;48.696;10.066;2024-02-21T00:08:00;12.48;;;6.47;;
5133;SDS011;2585;48.696;10.066;2024-02-21T00:10:29;19.03;;;6.90;;
5133;SDS011;2585;48.696;10.066;2024-02-21T00:12:58;11.27;;;6.53;;
5133;SDS011;2585;48.696;10.066;2024-02-21T00:15:28;17.43;;;7.83;;
5133;SDS011;2585;48.696;10.066;2024-02-21T00:17:55;19.27;;;7.17;;
5133;SDS011;2585;48.696;10.066;2024-02-21T00:20:22;12.07;;;7.40;;
5133;SDS011;2585;48.696;10.066;2024-02-21T00:22:49;13.73;;;7.10;;
5133;SDS011;2585;48.696;10.066;2024-02-21T00:25:15;12.20;;;7.07;;
5133;SDS011;2585;48.696;10.066;2024-02-21T00:27:42;13.47;;;6.97;;
5133;SDS011;2585;48.696;10.066;2024-02-21T00:30:09;18.90;;;7.27;;
5133;SDS011;2585;48.696;10.066;2024-02-21T00:32:37;12.20;;;7.10;;
5133;SDS011;2585;48.696;10.066;2024-02-21T00:35:03;17.20;;;7.32;;
5133;SDS011;2585;48.696;10.066;2024-02-21T00:37:31;13.15;;;6.80;;
5133;SDS011;2585;48.696;10.066;2024-02-21T00:39:58;12.60;;;7.60;;
5133;SDS011;2585;48.696;10.066;2024-02-21T00:42:25;13.80;;;7.40;;
5133;SDS011;2585;48.696;10.066;2024-02-21T00:44:51;15.97;;;7.47;;
5133;SDS011;2585;48.696;10.066;2024-02-21T00:47:18;15.15;;;7.43;;
5133;SDS011;2585;48.696;10.066;2024-02-21T00:49:45;11.43;;;6.90;;
5133;SDS011;2585;48.696;10.066;2024-02-21T00:52:12;10.00;;;5.90;;
5133;SDS011;2585;48.696;10.066;2024-02-21T00:54:39;17.33;;;6.97;;
5133;SDS011;2585;48.696;10.066;2024-02-21T00:57:18;14.60;;;6.80;;
5133;SDS011;2585;48.696;10.066;2024-02-21T00:59:45;17.90;;;7.80;;
5133;SDS011;2585;48.696;10.066;2024-02-21T01:02:12;14.57;;;5.95;;
5133;SDS011;2585;48.696;10.066;2024-02-21T01:04:39;11.60;;;6.97;;
5133;SDS011;2585;48.696;10.066;2024-02-21T01:07:06;11.53;;;6.73;;
5133;SDS011;2585;48.696;10.066;2024-02-21T01:09:33;19.80;;;7.22;;
5133;SDS011;2585;48.696;10.066;2024-02-21T01:11:59;14.40;;;7.13;;
5133;SDS011;2585;48.696;10.066;2024-02-21T01:14:26;24.80;;;7.03;;
5133;SDS011;2585;48.696;10.066;2024-02-21T01:16:54;11.83;;;6.80;;
5133;SDS011;2585;48.696;10.066;2024-02-21T01:19:21;11.98;;;6.93;;
5133;SDS011;2585;48.696;10.066;2024-02-21T01:21:48;14.25;;;7.50;;
5133;SDS011;2585;48.696;10.066;2024-02-21T01:24:15;13.73;;;6.63;;
5133;SDS011;2585;48.696;10.066;2024-02-21T01:26:41;15.32;;;6.35;;
5133;SDS011;2585;48.696;10.066;2024-02-21T01:29:08;10.63;;;6.60;;
5133;SDS011;2585;48.696;10.066;2024-02-21T01:31:35;12.70;;;6.63;;
5133;SDS011;2585;48.696;10.066;2024-02-21T01:34:02;10.80;;;6.30;;
5133;SDS011;2585;48.696;10.066;2024-02-21T01:36:29;18.03;;;6.77;;
5133;SDS011;2585;48.696;10.066;2024-02-21T01:38:55;12.60;;;6.00;;
5133;SDS011;2585;48.696;10.066;2024-02-21T01:41:22;18.27;;;6.53;;
5133;SDS011;2585;48.696;10.066;2024-02-21T01:43:49;20.23;;;7.05;;
5133;SDS011;2585;48.696;10.066;2024-02-21T01:46:16;14.05;;;5.82;;
5133;SDS011;2585;48.696;10.066;2024-02-21T01:48:43;22.83;;;7.27;;
5133;SDS011;2585;48.696;10.066;2024-02-21T01:51:12;11.23;;;5.80;;
5133;SDS011;2585;48.696;10.066;2024-02-21T01:53:41;11.55;;;7.55;;
5133;SDS011;2585;48.696;10.066;2024-02-21T01:56:10;20.23;;;8.65;;
5133;SDS011;2585;48.696;10.066;2024-02-21T01:58:39;19.53;;;7.80;;
5133;SDS011;2585;48.696;10.066;2024-02-21T02:01:08;13.13;;;7.75;;
5133;SDS011;2585;48.696;10.066;2024-02-21T02:03:36;13.18;;;7.57;;
5133;SDS011;2585;48.696;10.066;2024-02-21T02:06:07;16.10;;;7.65;;
5133;SDS011;2585;48.696;10.066;2024-02-21T02:08:33;17.33;;;7.90;;
5133;SDS011;2585;48.696;10.066;2024-02-21T02:11:00;17.58;;;8.13;;
5133;SDS011;2585;48.696;10.066;2024-02-21T02:13:28;13.55;;;7.28;;
5133;SDS011;2585;48.696;10.066;2024-02-21T02:15:55;15.63;;;5.90;;
5133;SDS011;2585;48.696;10.066;2024-02-21T02:18:22;12.53;;;7.07;;
5133;SDS011;2585;48.696;10.066;2024-02-21T02:20:49;13.87;;;5.70;;
5133;SDS011;2585;48.696;10.066;2024-02-21T02:25:56;8.20;;;5.10;;
5133;SDS011;2585;48.696;10.066;2024-02-21T02:28:22;11.37;;;5.53;;
5133;SDS011;2585;48.696;10.066;2024-02-21T02:30:50;10.10;;;5.40;;
5133;SDS011;2585;48.696;10.066;2024-02-21T02:33:16;12.20;;;5.43;;
5133;SDS011;2585;48.696;10.066;2024-02-21T02:35:44;9.30;;;5.57;;
5133;SDS011;2585;48.696;10.066;2024-02-21T02:38:11;8.32;;;5.45;;
5133;SDS011;2585;48.696;10.066;2024-02-21T02:40:39;10.13;;;4.78;;
5133;SDS011;2585;48.696;10.066;2024-02-21T02:43:07;14.00;;;6.13;;
5133;SDS011;2585;48.696;10.066;2024-02-21T02:45:34;11.93;;;4.90;;
5133;SDS011;2585;48.696;10.066;2024-02-21T02:48:01;8.50;;;5.15;;
5133;SDS011;2585;48.696;10.066;2024-02-21T02:50:28;8.80;;;4.63;;
5133;SDS011;2585;48.696;10.066;2024-02-21T02:52:55;9.33;;;4.80;;
5133;SDS011;2585;48.696;10.066;2024-02-21T02:55:22;7.25;;;4.50;;
5133;SDS011;2585;48.696;10.066;2024-02-21T02:57:50;6.93;;;4.40;;
5133;SDS011;2585;48.696;10.066;2024-02-21T03:00:16;11.00;;;4.27;;
5133;SDS011;2585;48.696;10.066;2024-02-21T03:02:44;6.67;;;4.37;;
5133;SDS011;2585;48.696;10.066;2024-02-21T03:05:16;9.50;;;4.22;;
5133;SDS011;2585;48.696;10.066;2024-02-21T03:07:45;7.90;;;3.63;;
5133;SDS011;2585;48.696;10.066;2024-02-21T03:10:13;8.50;;;3.77;;
5133;SDS011;2585;48.696;10.066;2024-02-21T03:12:40;11.17;;;4.23;;
5133;SDS011;2585;48.696;10.066;2024-02-21T03:15:07;12.00;;;3.72;;
5133;SDS011;2585;48.696;10.066;2024-02-21T03:17:34;7.20;;;3.37;;
5133;SDS011;2585;48.696;10.066;2024-02-21T03:20:02;15.03;;;3.73;;
5133;SDS011;2585;48.696;10.066;2024-02-21T03:22:32;6.57;;;3.73;;
5133;SDS011;2585;48.696;10.066;2024-02-21T03:24:59;5.47;;;3.20;;
5133;SDS011;2585;48.696;10.066;2024-02-21T03:27:26;9.40;;;4.23;;
5133;SDS011;2585;48.696;10.066;2024-02-21T03:29:53;7.83;;;3.83;;
5133;SDS011;2585;48.696;10.066;2024-02-21T03:32:20;7.13;;;3.67;;
5133;SDS011;2585;48.696;10.066;2024-02-21T03:34:47;10.70;;;4.10;;
5133;SDS011;2585;48.696;10.066;2024-02-21T03:37:14;8.80;;;2.90;;
5133;SDS011;2585;48.696;10.066;2024-02-21T03:39:41;16.20;;;4.33;;
5133;SDS011;2585;48.696;10.066;2024-02-21T03:42:08;15.35;;;4.13;;
5133;SDS011;2585;48.696;10.066;2024-02-21T03:44:34;11.50;;;3.73;;
5133;SDS011;2585;48.696;10.066;2024-02-21T03:47:01;13.43;;;3.83;;
5133;SDS011;2585;48.696;10.066;2024-02-21T03:49:28;14.27;;;4.23;;
5133;SDS011;2585;48.696;10.066;2024-02-21T03:51:55;7.93;;;3.13;;
5133;SDS011;2585;48.696;10.066;2024-02-21T03:54:22;6.00;;;3.60;;
5133;SDS011;2585;48.696;10.066;2024-02-21T03:56:49;7.93;;;4.03;;
5133;SDS011;2585;48.696;10.066;2024-02-21T03:59:16;9.40;;;4.00;;
5133;SDS011;2585;48.696;10.066;2024-02-21T04:01:43;10.73;;;4.00;;
5133;SDS011;2585;48.696;10.066;2024-02-21T04:04:10;5.10;;;3.67;;
5133;SDS011;2585;48.696;10.066;2024-02-21T04:06:45;9.50;;;4.70;;
5133;SDS011;2585;48.696;10.066;2024-02-21T04:09:15;5.60;;;3.27;;
5133;SDS011;2585;48.696;10.066;2024-02-21T04:11:43;6.47;;;3.70;;
5133;SDS011;2585;48.696;10.066;2024-02-21T04:14:10;9.80;;;4.23;;
5133;SDS011;2585;48.696;10.066;2024-02-21T04:16:40;22.30;;;4.47;;
5133;SDS011;2585;48.696;10.066;2024-02-21T04:19:07;13.23;;;3.57;;
5133;SDS011;2585;48.696;10.066;2024-02-21T04:21:34;9.23;;;3.20;;
5133;SDS011;2585;48.696;10.066;2024-02-21T04:24:02;13.80;;;3.77;;
5133;SDS011;2585;48.696;10.066;2024-02-21T04:26:32;6.00;;;3.30;;
5133;SDS011;2585;48.696;10.066;2024-02-21T04:28:59;8.70;;;3.63;;
5133;SDS011;2585;48.696;10.066;2024-02-21T04:31:27;10.70;;;3.67;;
5133;SDS011;2585;48.696;10.066;2024-02-21T04:33:54;18.70;;;4.60;;
5133;SDS011;2585;48.696;10.066;2024-02-21T04:36:20;8.03;;;3.83;;
5133;SDS011;2585;48.696;10.066;2024-02-21T04:38:47;13.87;;;3.93;;
5133;SDS011;2585;48.696;10.066;2024-02-21T04:41:15;11.33;;;3.60;;
5133;SDS011;2585;48.696;10.066;2024-02-21T04:43:42;9.87;;;3.53;;
5133;SDS011;2585;48.696;10.066;2024-02-21T04:46:08;7.70;;;3.30;;
5133;SDS011;2585;48.696;10.066;2024-02-21T04:48:36;10.57;;;3.43;;
5133;SDS011;2585;48.696;10.066;2024-02-21T04:51:03;10.43;;;3.80;;
5133;SDS011;2585;48.696;10.066;2024-02-21T04:53:30;11.93;;;3.60;;
5133;SDS011;2585;48.696;10.066;2024-02-21T04:55:56;9.93;;;3.97;;
5133;SDS011;2585;48.696;10.066;2024-02-21T04:58:23;5.00;;;3.30;;
5133;SDS011;2585;48.696;10.066;2024-02-21T05:00:51;7.77;;;3.07;;
5133;SDS011;2585;48.696;10.066;2024-02-21T05:03:19;16.37;;;6.13;;
5133;SDS011;2585;48.696;10.066;2024-02-21T05:05:46;9.20;;;3.53;;
5133;SDS011;2585;48.696;10.066;2024-02-21T05:08:13;6.87;;;3.70;;
5133;SDS011;2585;48.696;10.066;2024-02-21T05:10:40;10.17;;;4.10;;
5133;SDS011;2585;48.696;10.066;2024-02-21T05:13:07;10.47;;;3.97;;
5133;SDS011;2585;48.696;10.066;2024-02-21T05:15:35;14.33;;;3.77;;
5133;SDS011;2585;48.696;10.066;2024-02-21T05:18:02;9.60;;;3.47;;
5133;SDS011;2585;48.696;10.066;2024-02-21T05:20:29;9.73;;;3.90;;
5133;SDS011;2585;48.696;10.066;2024-02-21T05:22:56;11.17;;;3.60;;
5133;SDS011;2585;48.696;10.066;2024-02-21T05:25:23;19.67;;;3.70;;
5133;SDS011;2585;48.696;10.066;2024-02-21T05:27:50;9.18;;;4.32;;
5133;SDS011;2585;48.696;10.066;2024-02-21T05:30:19;10.13;;;5.50;;
5133;SDS011;2585;48.696;10.066;2024-02-21T05:32:46;7.33;;;3.27;;
5133;SDS011;2585;48.696;10.066;2024-02-21T05:35:13;7.63;;;3.47;;
5133;SDS011;2585;48.696;10.066;2024-02-21T05:37:40;4.55;;;2.80;;
5133;SDS011;2585;48.696;10.066;2024-02-21T05:40:07;10.52;;;3.55;;
5133;SDS011;2585;48.696;10.066;2024-02-21T05:42:34;10.55;;;4.30;;
5133;SDS011;2585;48.696;10.066;2024-02-21T05:45:01;7.63;;;3.00;;
5133;SDS011;2585;48.696;10.066;2024-02-21T05:47:29;5.70;;;2.83;;
5133;SDS011;2585;48.696;10.066;2024-02-21T05:49:56;7.40;;;3.40;;
5133;SDS011;2585;48.696;10.066;2024-02-21T05:52:23;7.57;;;3.60;;
5133;SDS011;2585;48.696;10.066;2024-02-21T05:54:50;10.02;;;2.60;;
5133;SDS011;2585;48.696;10.066;2024-02-21T05:57:19;4.13;;;2.33;;
5133;SDS011;2585;48.696;10.066;2024-02-21T05:59:46;10.82;;;2.63;;
5133;SDS011;2585;48.696;10.066;2024-02-21T06:02:13;5.57;;;2.53;;
5133;SDS011;2585;48.696;10.066;2024-02-21T06:04:41;9.60;;;2.92;;
5133;SDS011;2585;48.696;10.066;2024-02-21T06:07:09;6.50;;;2.65;;
5133;SDS011;2585;48.696;10.066;2024-02-21T06:09:41;5.03;;;2.72;;
5133;SDS011;2585;48.696;10.066;2024-02-21T06:12:08;7.25;;;3.58;;
5133;SDS011;2585;48.696;10.066;2024-02-21T06:14:35;7.05;;;2.85;;
5133;SDS011;2585;48.696;10.066;2024-02-21T06:17:03;6.20;;;3.50;;
5133;SDS011;2585;48.696;10.066;2024-02-21T06:19:30;4.85;;;2.80;;
5133;SDS011;2585;48.696;10.066;2024-02-21T06:21:57;4.22;;;2.40;;
5133;SDS011;2585;48.696;10.066;2024-02-21T06:24:23;9.48;;;3.05;;
5133;SDS011;2585;48.696;10.066;2024-02-21T06:26:50;7.00;;;2.70;;
5133;SDS011;2585;48.696;10.066;2024-02-21T06:29:17;6.15;;;3.00;;
5133;SDS011;2585;48.696;10.066;2024-02-21T06:31:44;6.85;;;2.97;;
5133;SDS011;2585;48.696;10.066;2024-02-21T06:34:11;6.75;;;3.10;;
5133;SDS011;2585;48.696;10.066;2024-02-21T06:36:38;8.57;;;2.97;;
5133;SDS011;2585;48.696;10.066;2024-02-21T06:39:05;8.43;;;3.30;;
5133;SDS011;2585;48.696;10.066;2024-02-21T06:41:34;10.23;;;3.40;;
5133;SDS011;2585;48.696;10.066;2024-02-21T06:44:01;6.20;;;3.10;;
5133;SDS011;2585;48.696;10.066;2024-02-21T06:46:29;10.70;;;3.05;;
5133;SDS011;2585;48.696;10.066;2024-02-21T06:48:56;6.07;;;3.42;;
5133;SDS011;2585;48.696;10.066;2024-02-21T06:51:24;4.93;;;3.00;;
5133;SDS011;2585;48.696;10.066;2024-02-21T06:53:51;7.97;;;3.58;;
5133;SDS011;2585;48.696;10.066;2024-02-21T06:56:19;8.73;;;3.00;;
5133;SDS011;2585;48.696;10.066;2024-02-21T06:58:46;10.00;;;3.50;;
5133;SDS011;2585;48.696;10.066;2024-02-21T07:01:13;6.20;;;2.90;;
5133;SDS011;2585;48.696;10.066;2024-02-21T07:03:40;13.50;;;3.28;;
5133;SDS011;2585;48.696;10.066;2024-02-21T07:06:07;10.57;;;3.72;;
5133;SDS011;2585;48.696;10.066;2024-02-21T07:08:34;9.90;;;3.28;;
5133;SDS011;2585;48.696;10.066;2024-02-21T07:11:01;11.20;;;4.35;;
5133;SDS011;2585;48.696;10.066;2024-02-21T07:13:28;8.95;;;4.45;;
5133;SDS011;2585;48.696;10.066;2024-02-21T07:15:55;15.70;;;5.57;;
5133;SDS011;2585;48.696;10.066;2024-02-21T07:18:21;30.35;;;12.35;;
5133;SDS011;2585;48.696;10.066;2024-02-21T07:20:48;13.82;;;4.68;;
5133;SDS011;2585;48.696;10.066;2024-02-21T07:23:15;8.18;;;4.22;;
5133;SDS011;2585;48.696;10.066;2024-02-21T07:25:42;7.30;;;4.57;;
5133;SDS011;2585;48.696;10.066;2024-02-21T07:28:09;10.82;;;5.13;;
5133;SDS011;2585;48.696;10.066;2024-02-21T07:30:35;14.63;;;5.70;;
5133;SDS011;2585;48.696;10.066;2024-02-21T07:33:02;16.33;;;5.95;;
5133;SDS011;2585;48.696;10.066;2024-02-21T07:35:30;12.40;;;5.60;;
5133;SDS011;2585;48.696;10.066;2024-02-21T07:37:56;17.77;;;5.85;;
5133;SDS011;2585;48.696;10.066;2024-02-21T07:40:23;12.50;;;7.68;;
5133;SDS011;2585;48.696;10.066;2024-02-21T07:42:50;14.40;;;6.18;;
5133;SDS011;2585;48.696;10.066;2024-02-21T07:45:17;18.98;;;9.07;;
5133;SDS011;2585;48.696;10.066;2024-02-21T07:47:45;12.82;;;5.85;;
5133;SDS011;2585;48.696;10.066;2024-02-21T07:50:12;13.18;;;4.20;;
5133;SDS011;2585;48.696;10.066;2024-02-21T07:52:39;9.23;;;3.30;;
5133;SDS011;2585;48.696;10.066;2024-02-21T07:55:06;19.10;;;5.05;;
5133;SDS011;2585;48.696;10.066;2024-02-21T07:57:33;15.50;;;4.30;;
5133;SDS011;2585;48.696;10.066;2024-02-21T08:00:00;9.80;;;3.70;;
5133;SDS011;2585;48.696;10.066;2024-02-21T08:02:27;10.30;;;4.70;;
5133;SDS011;2585;48.696;10.066;2024-02-21T08:04:53;9.48;;;4.40;;
5133;SDS011;2585;48.696;10.066;2024-02-21T08:07:20;6.05;;;3.85;;
5133;SDS011;2585;48.696;10.066;2024-02-21T08:09:47;8.40;;;4.17;;
5133;SDS011;2585;48.696;10.066;2024-02-21T08:12:14;8.45;;;4.32;;
5133;SDS011;2585;48.696;10.066;2024-02-21T08:14:41;9.18;;;3.75;;
5133;SDS011;2585;48.696;10.066;2024-02-21T08:17:07;13.23;;;4.85;;
5133;SDS011;2585;48.696;10.066;2024-02-21T08:19:34;7.88;;;4.93;;
5133;SDS011;2585;48.696;10.066;2024-02-21T08:22:01;15.35;;;5.00;;
5133;SDS011;2585;48.696;10.066;2024-02-21T08:24:29;13.10;;;4.60;;
5133;SDS011;2585;48.696;10.066;2024-02-21T08:26:56;10.57;;;4.00;;
5133;SDS011;2585;48.696;10.066;2024-02-21T08:29:23;10.17;;;4.20;;
5133;SDS011;2585;48.696;10.066;2024-02-21T08:31:50;14.40;;;4.10;;
5133;SDS011;2585;48.696;10.066;2024-02-21T08:34:16;13.30;;;3.77;;
5133;SDS011;2585;48.696;10.066;2024-02-21T08:36:44;6.13;;;3.20;;
5133;SDS011;2585;48.696;10.066;2024-02-21T08:39:11;11.23;;;4.07;;
5133;SDS011;2585;48.696;10.066;2024-02-21T08:41:42;13.83;;;3.90;;
5133;SDS011;2585;48.696;10.066;2024-02-21T08:44:22;8.73;;;3.40;;
5133;SDS011;2585;48.696;10.066;2024-02-21T08:46:53;9.33;;;4.13;;
5133;SDS011;2585;48.696;10.066;2024-02-21T08:49:21;10.93;;;3.93;;
5133;SDS011;2585;48.696;10.066;2024-02-21T08:51:48;11.77;;;3.60;;
5133;SDS011;2585;48.696;10.066;2024-02-21T08:54:15;7.60;;;3.00;;
5133;SDS011;2585;48.696;10.066;2024-02-21T08:56:43;16.03;;;3.97;;
5133;SDS011;2585;48.696;10.066;2024-02-21T08:59:10;13.80;;;3.30;;
5133;SDS011;2585;48.696;10.066;2024-02-21T09:01:37;10.80;;;3.10;;
5133;SDS011;2585;48.696;10.066;2024-02-21T09:04:04;7.43;;;2.57;;
5133;SDS011;2585;48.696;10.066;2024-02-21T09:06:31;7.00;;;3.00;;
5133;SDS011;2585;48.696;10.066;2024-02-21T09:09:00;7.70;;;2.63;;
5133;SDS011;2585;48.696;10.066;2024-02-21T09:11:27;11.40;;;3.50;;
5133;SDS011;2585;48.696;10.066;2024-02-21T09:13:54;9.57;;;2.70;;
5133;SDS011;2585;48.696;10.066;2024-02-21T09:16:22;11.07;;;2.80;;
5133;SDS011;2585;48.696;10.066;2024-02-21T09:18:50;7.03;;;2.40;;
5133;SDS011;2585;48.696;10.066;2024-02-21T09:21:17;10.17;;;3.23;;
5133;SDS011;2585;48.696;10.066;2024-02-21T09:23:44;5.37;;;1.87;;
5133;SDS011;2585;48.696;10.066;2024-02-21T09:26:11;6.00;;;2.03;;
5133;SDS011;2585;48.696;10.066;2024-02-21T09:28:42;8.10;;;2.23;;
5133;SDS011;2585;48.696;10.066;2024-02-21T09:31:10;7.23;;;1.97;;
5133;SDS011;2585;48.696;10.066;2024-02-21T09:33:38;10.97;;;2.30;;
5133;SDS011;2585;48.696;10.066;2024-02-21T09:36:05;5.93;;;1.97;;
5133;SDS011;2585;48.696;10.066;2024-02-21T09:38:32;5.00;;;1.87;;
5133;SDS011;2585;48.696;10.066;2024-02-21T09:41:00;4.90;;;1.80;;
5133;SDS011;2585;48.696;10.066;2024-02-21T09:43:34;3.00;;;1.77;;
5133;SDS011;2585;48.696;10.066;2024-02-21T09:46:04;6.83;;;1.60;;
5133;SDS011;2585;48.696;10.066;2024-02-21T09:51:22;8.23;;;2.67;;
5133;SDS011;2585;48.696;10.066;2024-02-21T09:53:51;4.97;;;1.80;;
5133;SDS011;2585;48.696;10.066;2024-02-21T09:56:36;5.20;;;1.70;;
5133;SDS011;2585;48.696;10.066;2024-02-21T09:59:03;8.23;;;2.20;;
5133;SDS011;2585;48.696;10.066;2024-02-21T10:01:31;5.67;;;1.60;;
5133;SDS011;2585;48.696;10.066;2024-02-21T10:04:01;7.13;;;1.73;;
5133;SDS011;2585;48.696;10.066;2024-02-21T10:06:29;4.70;;;1.53;;
5133;SDS011;2585;48.696;10.066;2024-02-21T10:08:57;3.10;;;1.50;;
5133;SDS011;2585;48.696;10.066;2024-02-21T10:11:24;6.77;;;1.80;;
5133;SDS011;2585;48.696;10.066;2024-02-21T10:14:02;5.33;;;1.90;;
5133;SDS011;2585;48.696;10.066;2024-02-21T10:16:33;6.90;;;2.50;;
5133;SDS011;2585;48.696;10.066;2024-02-21T10:19:00;4.37;;;2.23;;
5133;SDS011;2585;48.696;10.066;2024-02-21T10:21:28;3.20;;;1.70;;
5133;SDS011;2585;48.696;10.066;2024-02-21T10:23:56;7.10;;;1.93;;
5133;SDS011;2585;48.696;10.066;2024-02-21T10:26:22;6.77;;;2.10;;
5133;SDS011;2585;48.696;10.066;2024-02-21T10:28:49;3.77;;;2.03;;
5133;SDS011;2585;48.696;10.066;2024-02-21T10:31:25;3.60;;;1.60;;
5133;SDS011;2585;48.696;10.066;2024-02-21T10:33:57;3.50;;;1.70;;
5133;SDS011;2585;48.696;10.066;2024-02-21T10:36:32;3.73;;;1.33;;
5133;SDS011;2585;48.696;10.066;2024-02-21T10:38:58;7.90;;;2.07;;
5133;SDS011;2585;48.696;10.066;2024-02-21T10:41:25;3.97;;;1.77;;
5133;SDS011;2585;48.696;10.066;2024-02-21T10:43:54;3.00;;;1.63;;
5133;SDS011;2585;48.696;10.066;2024-02-21T10:46:22;4.47;;;2.30;;
5133;SDS011;2585;48.696;10.066;2024-02-21T10:49:01;5.63;;;1.93;;
5133;SDS011;2585;48.696;10.066;2024-02-21T10:51:44;7.67;;;1.83;;
5133;SDS011;2585;48.696;10.066;2024-02-21T10:57:05;7.10;;;2.50;;
5133;SDS011;2585;48.696;10.066;2024-02-21T10:59:35;7.33;;;2.40;;
5133;SDS011;2585;48.696;10.066;2024-02-21T11:02:06;4.60;;;2.33;;
5133;SDS011;2585;48.696;10.066;2024-02-21T11:04:33;3.50;;;2.07;;
5133;SDS011;2585;48.696;10.066;2024-02-21T11:07:05;7.83;;;2.67;;
5133;SDS011;2585;48.696;10.066;2024-02-21T11:09:36;5.47;;;2.27;;
5133;SDS011;2585;48.696;10.066;2024-02-21T11:12:04;5.30;;;2.00;;
5133;SDS011;2585;48.696;10.066;2024-02-21T11:14:33;7.40;;;2.80;;
5133;SDS011;2585;48.696;10.066;2024-02-21T11:17:15;7.97;;;2.97;;
5133;SDS011;2585;48.696;10.066;2024-02-21T11:19:47;10.60;;;2.80;;
5133;SDS011;2585;48.696;10.066;2024-02-21T11:22:15;7.57;;;2.10;;
5133;SDS011;2585;48.696;10.066;2024-02-21T11:24:48;5.23;;;1.70;;
5133;SDS011;2585;48.696;10.066;2024-02-21T11:27:15;5.33;;;1.90;;
5133;SDS011;2585;48.696;10.066;2024-02-21T11:29:47;6.20;;;1.80;;
5133;SDS011;2585;48.696;10.066;2024-02-21T11:32:17;5.60;;;2.40;;
5133;SDS011;2585;48.696;10.066;2024-02-21T11:34:56;6.53;;;1.83;;
5133;SDS011;2585;48.696;10.066;2024-02-21T11:37:27;4.10;;;2.53;;
5133;SDS011;2585;48.696;10.066;2024-02-21T11:39:55;4.47;;;1.70;;
5133;SDS011;2585;48.696;10.066;2024-02-21T11:42:22;4.63;;;2.20;;
5133;SDS011;2585;48.696;10.066;2024-02-21T11:44:53;3.10;;;1.87;;
5133;SDS011;2585;48.696;10.066;2024-02-21T11:47:23;6.97;;;2.27;;
5133;SDS011;2585;48.696;10.066;2024-02-21T11:49:50;8.60;;;1.90;;
5133;SDS011;2585;48.696;10.066;2024-02-21T11:52:21;7.43;;;2.27;;
5133;SDS011;2585;48.696;10.066;2024-02-21T11:54:51;6.53;;;2.30;;
5133;SDS011;2585;48.696;10.066;2024-02-21T11:57:18;11.97;;;2.77;;
5133;SDS011;2585;48.696;10.066;2024-02-21T11:59:46;7.60;;;2.80;;
5133;SDS011;2585;48.696;10.066;2024-02-21T12:02:13;5.30;;;2.97;;
5133;SDS011;2585;48.696;10.066;2024-02-21T12:04:41;5.80;;;2.30;;
5133;SDS011;2585;48.696;10.066;2024-02-21T12:07:09;11.13;;;3.20;;
5133;SDS011;2585;48.696;10.066;2024-02-21T12:09:36;11.33;;;2.70;;
5133;SDS011;2585;48.696;10.066;2024-02-21T12:12:04;9.70;;;2.73;;
5133;SDS011;2585;48.696;10.066;2024-02-21T12:14:32;9.37;;;2.27;;
5133;SDS011;2585;48.696;10.066;2024-02-21T12:17:01;7.60;;;2.73;;
5133;SDS011;2585;48.696;10.066;2024-02-21T12:19:32;3.50;;;2.20;;
5133;SDS011;2585;48.696;10.066;2024-02-21T12:22:00;7.63;;;2.50;;
5133;SDS011;2585;48.696;10.066;2024-02-21T12:24:28;4.40;;;2.00;;
5133;SDS011;2585;48.696;10.066;2024-02-21T12:26:56;3.70;;;2.00;;
5133;SDS011;2585;48.696;10.066;2024-02-21T12:29:25;7.40;;;2.70;;
5133;SDS011;2585;48.696;10.066;2024-02-21T12:31:52;3.30;;;2.40;;
5133;SDS011;2585;48.696;10.066;2024-02-21T12:34:21;5.47;;;2.07;;
5133;SDS011;2585;48.696;10.066;2024-02-21T12:37:04;5.23;;;2.10;;
5133;SDS011;2585;48.696;10.066;2024-02-21T12:39:31;4.20;;;1.60;;
5133;SDS011;2585;48.696;10.066;2024-02-21T12:41:58;4.00;;;1.97;;
5133;SDS011;2585;48.696;10.066;2024-02-21T12:44:26;2.93;;;1.67;;
5133;SDS011;2585;48.696;10.066;2024-02-21T12:46:53;4.03;;;2.10;;
5133;SDS011;2585;48.696;10.066;2024-02-21T12:49:21;6.90;;;2.27;;
5133;SDS011;2585;48.696;10.066;2024-02-21T12:51:48;3.50;;;2.30;;
5133;SDS011;2585;48.696;10.066;2024-02-21T12:54:16;4.80;;;2.20;;
5133;SDS011;2585;48.696;10.066;2024-02-21T12:56:49;8.97;;;2.40;;
5133;SDS011;2585;48.696;10.066;2024-02-21T12:59:16;5.87;;;2.33;;
5133;SDS011;2585;48.696;10.066;2024-02-21T13:01:43;4.07;;;1.83;;
5133;SDS011;2585;48.696;10.066;2024-02-21T13:04:10;4.13;;;1.87;;
5133;SDS011;2585;48.696;10.066;2024-02-21T13:06:38;4.27;;;2.00;;
5133;SDS011;2585;48.696;10.066;2024-02-21T13:09:05;4.03;;;2.33;;
5133;SDS011;2585;48.696;10.066;2024-02-21T13:11:34;5.43;;;2.00;;
5133;SDS011;2585;48.696;10.066;2024-02-21T13:14:01;2.63;;;1.90;;
5133;SDS011;2585;48.696;10.066;2024-02-21T13:16:29;5.03;;;1.87;;
5133;SDS011;2585;48.696;10.066;2024-02-21T13:18:55;6.10;;;2.03;;
5133;SDS011;2585;48.696;10.066;2024-02-21T13:21:22;5.60;;;1.70;;
5133;SDS011;2585;48.696;10.066;2024-02-21T13:23:49;4.83;;;1.80;;
5133;SDS011;2585;48.696;10.066;2024-02-21T13:26:16;2.50;;;1.33;;
5133;SDS011;2585;48.696;10.066;2024-02-21T13:28:43;2.67;;;1.70;;
5133;SDS011;2585;48.696;10.066;2024-02-21T13:31:11;9.23;;;2.20;;
5133;SDS011;2585;48.696;10.066;2024-02-21T13:33:38;5.23;;;1.70;;
5133;SDS011;2585;48.696;10.066;2024-02-21T13:36:05;2.90;;;1.80;;
5133;SDS011;2585;48.696;10.066;2024-02-21T13:38:33;4.97;;;1.83;;
5133;SDS011;2585;48.696;10.066;2024-02-21T13:40:59;5.40;;;2.10;;
5133;SDS011;2585;48.696;10.066;2024-02-21T13:43:27;9.87;;;2.97;;
5133;SDS011;2585;48.696;10.066;2024-02-21T13:45:58;10.00;;;2.00;;
5133;SDS011;2585;48.696;10.066;2024-02-21T13:48:26;10.13;;;2.07;;
5133;SDS011;2585;48.696;10.066;2024-02-21T13:50:53;6.83;;;2.73;;
5133;SDS011;2585;48.696;10.066;2024-02-21T13:53:20;3.70;;;1.90;;
5133;SDS011;2585;48.696;10.066;2024-02-21T13:55:49;2.53;;;1.83;;
5133;SDS011;2585;48.696;10.066;2024-02-21T13:58:16;4.30;;;2.10;;
5133;SDS011;2585;48.696;10.066;2024-02-21T14:00:43;5.80;;;2.20;;
5133;SDS011;2585;48.696;10.066;2024-02-21T14:03:10;6.20;;;2.20;;
5133;SDS011;2585;48.696;10.066;2024-02-21T14:05:37;2.73;;;1.70;;
5133;SDS011;2585;48.696;10.066;2024-02-21T14:08:08;4.90;;;2.60;;
5133;SDS011;2585;48.696;10.066;2024-02-21T14:10:36;4.00;;;1.90;;
5133;SDS011;2585;48.696;10.066;2024-02-21T14:13:03;5.40;;;3.30;;
5133;SDS011;2585;48.696;10.066;2024-02-21T14:15:30;4.50;;;2.10;;
5133;SDS011;2585;48.696;10.066;2024-02-21T14:17:57;6.43;;;2.90;;
5133;SDS011;2585;48.696;10.066;2024-02-21T14:20:24;3.73;;;1.80;;
5133;SDS011;2585;48.696;10.066;2024-02-21T14:22:51;7.30;;;1.97;;
5133;SDS011;2585;48.696;10.066;2024-02-21T14:25:18;2.93;;;1.93;;
5133;SDS011;2585;48.696;10.066;2024-02-21T14:27:45;3.83;;;1.70;;
5133;SDS011;2585;48.696;10.066;2024-02-21T14:30:12;7.20;;;1.83;;
5133;SDS011;2585;48.696;10.066;2024-02-21T14:32:40;4.20;;;1.50;;
5133;SDS011;2585;48.696;10.066;2024-02-21T14:35:10;5.97;;;1.70;;
5133;SDS011;2585;48.696;10.066;2024-02-21T14:37:37;3.27;;;1.80;;
5133;SDS011;2585;48.696;10.066;2024-02-21T14:40:04;4.13;;;1.90;;
5133;SDS011;2585;48.696;10.066;2024-02-21T14:42:32;8.83;;;1.80;;
5133;SDS011;2585;48.696;10.066;2024-02-21T14:44:59;4.03;;;2.37;;
5133;SDS011;2585;48.696;10.066;2024-02-21T14:47:31;2.50;;;1.60;;
5133;SDS011;2585;48.696;10.066;2024-02-21T14:49:58;2.70;;;1.50;;
5133;SDS011;2585;48.696;10.066;2024-02-21T14:52:26;3.07;;;1.60;;
5133;SDS011;2585;48.696;10.066;2024-02-21T14:54:54;2.90;;;1.50;;
5133;SDS011;2585;48.696;10.066;2024-02-21T14:57:22;5.47;;;2.10;;
5133;SDS011;2585;48.696;10.066;2024-02-21T14:59:49;4.73;;;3.17;;
5133;SDS011;2585;48.696;10.066;2024-02-21T15:02:19;4.60;;;2.13;;
5133;SDS011;2585;48.696;10.066;2024-02-21T15:04:46;6.40;;;2.60;;
5133;SDS011;2585;48.696;10.066;2024-02-21T15:07:13;7.90;;;2.93;;